sensor_id;sensor_type;location;lat;lon;timestamp;temperature;humidity
25973;DHT22;13765;51.166;4.466;2022-08-21T00:01:28;17.60;99.90
25973;DHT22;13765;51.166;4.466;2022-08-21T00:03:55;17.70;99.90
25973;DHT22;13765;51.166;4.466;2022-08-21T00:06:22;17.70;99.90
25973;DHT22;13765;51.166;4.466;2022-08-21T00:08:51;17.60;99.90
25973;DHT22;13765;51.166;4.466;2022-08-21T00:11:17;17.60;99.90
25973;DHT22;13765;51.166;4.466;2022-08-21T00:13:43;17.60;99.90
25973;DHT22;13765;51.166;4.466;2022-08-21T00:16:10;17.70;99.90
25973;DHT22;13765;51.166;4.466;2022-08-21T00:18:40;17.60;99.90
25973;DHT22;13765;51.166;4.466;2022-08-21T00:21:06;17.60;99.90
25973;DHT22;13765;51.166;4.466;2022-08-21T00:23:35;17.60;99.90
25973;DHT22;13765;51.166;4.466;2022-08-21T00:26:06;17.60;99.90
25973;DHT22;13765;51.166;4.466;2022-08-21T00:28:32;17.50;99.90
25973;DHT22;13765;51.166;4.466;2022-08-21T00:30:58;17.50;99.90
25973;DHT22;13765;51.166;4.466;2022-08-21T00:33:25;17.50;99.90
25973;DHT22;13765;51.166;4.466;2022-08-21T00:35:53;17.40;99.90
25973;DHT22;13765;51.166;4.466;2022-08-21T00:38:19;17.40;99.90
25973;DHT22;13765;51.166;4.466;2022-08-21T00:43:15;17.30;99.90
25973;DHT22;13765;51.166;4.466;2022-08-21T00:45:43;17.30;99.90
25973;DHT22;13765;51.166;4.466;2022-08-21T00:48:12;17.30;99.90
25973;DHT22;13765;51.166;4.466;2022-08-21T00:50:44;17.30;99.90
25973;DHT22;13765;51.166;4.466;2022-08-21T00:53:11;17.30;99.90
25973;DHT22;13765;51.166;4.466;2022-08-21T00:55:41;17.30;99.90
25973;DHT22;13765;51.166;4.466;2022-08-21T00:58:10;17.20;99.90
25973;DHT22;13765;51.166;4.466;2022-08-21T01:00:40;17.20;99.90
25973;DHT22;13765;51.166;4.466;2022-08-21T01:03:12;17.20;99.90
25973;DHT22;13765;51.166;4.466;2022-08-21T01:05:40;17.10;99.90
25973;DHT22;13765;51.166;4.466;2022-08-21T01:08:07;17.10;99.90
25973;DHT22;13765;51.166;4.466;2022-08-21T01:10:39;17.10;99.90
25973;DHT22;13765;51.166;4.466;2022-08-21T01:13:07;17.00;99.90
25973;DHT22;13765;51.166;4.466;2022-08-21T01:15:38;17.00;99.90
25973;DHT22;13765;51.166;4.466;2022-08-21T01:18:06;17.00;99.90
25973;DHT22;13765;51.166;4.466;2022-08-21T01:20:36;17.00;99.90
25973;DHT22;13765;51.166;4.466;2022-08-21T01:23:05;17.00;99.90
25973;DHT22;13765;51.166;4.466;2022-08-21T01:25:34;16.90;99.90
25973;DHT22;13765;51.166;4.466;2022-08-21T01:28:06;16.80;99.90
25973;DHT22;13765;51.166;4.466;2022-08-21T01:30:35;16.80;99.90
25973;DHT22;13765;51.166;4.466;2022-08-21T01:33:03;16.70;99.90
25973;DHT22;13765;51.166;4.466;2022-08-21T01:35:29;16.70;99.90
25973;DHT22;13765;51.166;4.466;2022-08-21T01:37:55;16.80;99.90
25973;DHT22;13765;51.166;4.466;2022-08-21T01:40:21;16.80;99.90
25973;DHT22;13765;51.166;4.466;2022-08-21T01:42:49;16.70;99.90
25973;DHT22;13765;51.166;4.466;2022-08-21T01:45:19;16.70;99.90
25973;DHT22;13765;51.166;4.466;2022-08-21T01:47:44;16.70;99.90
25973;DHT22;13765;51.166;4.466;2022-08-21T01:50:13;16.60;99.90
25973;DHT22;13765;51.166;4.466;2022-08-21T01:52:42;16.50;99.90
25973;DHT22;13765;51.166;4.466;2022-08-21T01:55:11;16.50;99.90
25973;DHT22;13765;51.166;4.466;2022-08-21T01:57:37;16.50;99.90
25973;DHT22;13765;51.166;4.466;2022-08-21T02:00:08;16.60;99.90
25973;DHT22;13765;51.166;4.466;2022-08-21T02:02:38;16.50;99.90
25973;DHT22;13765;51.166;4.466;2022-08-21T02:05:06;16.50;99.90
25973;DHT22;13765;51.166;4.466;2022-08-21T02:07:39;16.50;99.90
25973;DHT22;13765;51.166;4.466;2022-08-21T02:10:07;16.50;99.90
25973;DHT22;13765;51.166;4.466;2022-08-21T02:12:33;16.40;99.90
25973;DHT22;13765;51.166;4.466;2022-08-21T02:14:59;16.30;99.90
25973;DHT22;13765;51.166;4.466;2022-08-21T02:17:26;16.30;99.90
25973;DHT22;13765;51.166;4.466;2022-08-21T02:19:52;16.30;99.90
25973;DHT22;13765;51.166;4.466;2022-08-21T02:22:20;16.30;99.90
25973;DHT22;13765;51.166;4.466;2022-08-21T02:24:46;16.30;99.90
25973;DHT22;13765;51.166;4.466;2022-08-21T02:27:11;16.30;99.90
25973;DHT22;13765;51.166;4.466;2022-08-21T02:29:37;16.30;99.90
25973;DHT22;13765;51.166;4.466;2022-08-21T02:32:03;16.30;99.90
25973;DHT22;13765;51.166;4.466;2022-08-21T02:34:29;16.20;99.90
25973;DHT22;13765;51.166;4.466;2022-08-21T02:36:54;16.10;99.90
25973;DHT22;13765;51.166;4.466;2022-08-21T02:39:20;16.10;99.90
25973;DHT22;13765;51.166;4.466;2022-08-21T02:41:46;16.00;99.90
25973;DHT22;13765;51.166;4.466;2022-08-21T02:44:14;16.00;99.90
25973;DHT22;13765;51.166;4.466;2022-08-21T02:46:40;16.00;99.90
25973;DHT22;13765;51.166;4.466;2022-08-21T02:49:06;16.00;99.90
25973;DHT22;13765;51.166;4.466;2022-08-21T02:51:35;16.00;99.90
25973;DHT22;13765;51.166;4.466;2022-08-21T02:54:03;15.90;99.90
25973;DHT22;13765;51.166;4.466;2022-08-21T02:56:29;15.90;99.90
25973;DHT22;13765;51.166;4.466;2022-08-21T02:58:57;15.90;99.90
25973;DHT22;13765;51.166;4.466;2022-08-21T03:01:22;15.90;99.90
25973;DHT22;13765;51.166;4.466;2022-08-21T03:03:48;15.90;99.90
25973;DHT22;13765;51.166;4.466;2022-08-21T03:06:15;15.80;99.90
25973;DHT22;13765;51.166;4.466;2022-08-21T03:08:43;15.70;99.90
25973;DHT22;13765;51.166;4.466;2022-08-21T03:11:11;15.70;99.90
25973;DHT22;13765;51.166;4.466;2022-08-21T03:13:37;15.80;99.90
25973;DHT22;13765;51.166;4.466;2022-08-21T03:16:06;15.80;99.90
25973;DHT22;13765;51.166;4.466;2022-08-21T03:18:33;15.80;99.90
25973;DHT22;13765;51.166;4.466;2022-08-21T03:21:01;15.80;99.90
25973;DHT22;13765;51.166;4.466;2022-08-21T03:23:30;15.70;99.90
25973;DHT22;13765;51.166;4.466;2022-08-21T03:25:56;15.70;99.90
25973;DHT22;13765;51.166;4.466;2022-08-21T03:28:24;15.70;99.90
25973;DHT22;13765;51.166;4.466;2022-08-21T03:30:51;15.70;99.90
25973;DHT22;13765;51.166;4.466;2022-08-21T03:33:18;15.70;99.90
25973;DHT22;13765;51.166;4.466;2022-08-21T03:35:46;15.60;99.90
25973;DHT22;13765;51.166;4.466;2022-08-21T03:38:13;15.70;99.90
25973;DHT22;13765;51.166;4.466;2022-08-21T03:40:40;15.70;99.90
25973;DHT22;13765;51.166;4.466;2022-08-21T03:43:06;15.60;99.90
25973;DHT22;13765;51.166;4.466;2022-08-21T03:45:35;15.80;99.90
25973;DHT22;13765;51.166;4.466;2022-08-21T03:48:03;15.70;99.90
25973;DHT22;13765;51.166;4.466;2022-08-21T03:50:32;15.60;99.90
25973;DHT22;13765;51.166;4.466;2022-08-21T03:52:59;15.60;99.90
25973;DHT22;13765;51.166;4.466;2022-08-21T03:55:26;15.60;99.90
25973;DHT22;13765;51.166;4.466;2022-08-21T03:57:52;15.50;99.90
25973;DHT22;13765;51.166;4.466;2022-08-21T04:00:21;15.50;99.90
25973;DHT22;13765;51.166;4.466;2022-08-21T04:02:48;15.50;99.90
25973;DHT22;13765;51.166;4.466;2022-08-21T04:05:16;15.50;99.90
25973;DHT22;13765;51.166;4.466;2022-08-21T04:08:02;15.50;99.90
25973;DHT22;13765;51.166;4.466;2022-08-21T04:10:31;15.40;99.90
25973;DHT22;13765;51.166;4.466;2022-08-21T04:12:57;15.40;99.90
25973;DHT22;13765;51.166;4.466;2022-08-21T04:15:25;15.40;99.90
25973;DHT22;13765;51.166;4.466;2022-08-21T04:17:53;15.40;99.90
25973;DHT22;13765;51.166;4.466;2022-08-21T04:20:21;15.50;99.90
25973;DHT22;13765;51.166;4.466;2022-08-21T04:22:47;15.50;99.90
25973;DHT22;13765;51.166;4.466;2022-08-21T04:25:16;15.50;99.90
25973;DHT22;13765;51.166;4.466;2022-08-21T04:27:43;15.50;99.90
25973;DHT22;13765;51.166;4.466;2022-08-21T04:30:10;15.50;99.90
25973;DHT22;13765;51.166;4.466;2022-08-21T04:32:36;15.40;99.90
25973;DHT22;13765;51.166;4.466;2022-08-21T04:35:08;15.40;99.90
25973;DHT22;13765;51.166;4.466;2022-08-21T04:37:36;15.40;99.90
25973;DHT22;13765;51.166;4.466;2022-08-21T04:40:05;15.50;99.90
25973;DHT22;13765;51.166;4.466;2022-08-21T04:42:32;15.40;99.90
25973;DHT22;13765;51.166;4.466;2022-08-21T04:44:58;15.40;99.90
25973;DHT22;13765;51.166;4.466;2022-08-21T04:47:26;15.40;99.90
25973;DHT22;13765;51.166;4.466;2022-08-21T04:49:52;15.30;99.90
25973;DHT22;13765;51.166;4.466;2022-08-21T04:52:21;15.30;99.90
25973;DHT22;13765;51.166;4.466;2022-08-21T04:54:51;15.30;99.90
25973;DHT22;13765;51.166;4.466;2022-08-21T04:57:18;15.30;99.90
25973;DHT22;13765;51.166;4.466;2022-08-21T04:59:50;15.40;99.90
25973;DHT22;13765;51.166;4.466;2022-08-21T05:02:18;15.40;99.90
25973;DHT22;13765;51.166;4.466;2022-08-21T05:04:50;15.40;99.90
25973;DHT22;13765;51.166;4.466;2022-08-21T05:07:21;15.40;99.90
25973;DHT22;13765;51.166;4.466;2022-08-21T05:09:50;15.50;99.90
25973;DHT22;13765;51.166;4.466;2022-08-21T05:12:16;15.50;99.90
25973;DHT22;13765;51.166;4.466;2022-08-21T05:14:46;15.50;99.90
25973;DHT22;13765;51.166;4.466;2022-08-21T05:17:12;15.60;99.90
25973;DHT22;13765;51.166;4.466;2022-08-21T05:19:41;15.60;99.90
25973;DHT22;13765;51.166;4.466;2022-08-21T05:22:07;15.70;99.90
25973;DHT22;13765;51.166;4.466;2022-08-21T05:24:34;15.60;99.90
25973;DHT22;13765;51.166;4.466;2022-08-21T05:27:00;15.60;99.90
25973;DHT22;13765;51.166;4.466;2022-08-21T05:29:27;15.60;99.90
25973;DHT22;13765;51.166;4.466;2022-08-21T05:31:56;15.70;99.90
25973;DHT22;13765;51.166;4.466;2022-08-21T05:34:23;15.80;99.90
25973;DHT22;13765;51.166;4.466;2022-08-21T05:36:49;15.90;99.90
25973;DHT22;13765;51.166;4.466;2022-08-21T05:39:15;16.00;99.90
25973;DHT22;13765;51.166;4.466;2022-08-21T05:41:41;16.10;99.90
25973;DHT22;13765;51.166;4.466;2022-08-21T05:44:12;16.20;99.90
25973;DHT22;13765;51.166;4.466;2022-08-21T05:46:38;16.30;99.90
25973;DHT22;13765;51.166;4.466;2022-08-21T05:49:04;16.60;99.90
25973;DHT22;13765;51.166;4.466;2022-08-21T05:51:30;16.90;99.90
25973;DHT22;13765;51.166;4.466;2022-08-21T05:53:55;17.30;99.90
25973;DHT22;13765;51.166;4.466;2022-08-21T05:56:21;18.00;99.90
25973;DHT22;13765;51.166;4.466;2022-08-21T05:58:49;18.80;99.90
25973;DHT22;13765;51.166;4.466;2022-08-21T06:01:15;19.80;99.90
25973;DHT22;13765;51.166;4.466;2022-08-21T06:03:43;20.70;99.90
25973;DHT22;13765;51.166;4.466;2022-08-21T06:06:12;21.30;99.90
25973;DHT22;13765;51.166;4.466;2022-08-21T06:08:38;21.90;99.90
25973;DHT22;13765;51.166;4.466;2022-08-21T06:11:07;21.80;99.90
25973;DHT22;13765;51.166;4.466;2022-08-21T06:13:34;21.90;99.90
25973;DHT22;13765;51.166;4.466;2022-08-21T06:16:07;22.10;99.90
25973;DHT22;13765;51.166;4.466;2022-08-21T06:18:35;23.00;99.90
25973;DHT22;13765;51.166;4.466;2022-08-21T06:21:02;23.50;99.90
25973;DHT22;13765;51.166;4.466;2022-08-21T06:23:27;23.70;99.90
25973;DHT22;13765;51.166;4.466;2022-08-21T06:25:53;24.30;99.90
25973;DHT22;13765;51.166;4.466;2022-08-21T06:28:19;25.00;99.90
25973;DHT22;13765;51.166;4.466;2022-08-21T06:30:45;25.30;99.90
25973;DHT22;13765;51.166;4.466;2022-08-21T06:33:16;25.20;99.90
25973;DHT22;13765;51.166;4.466;2022-08-21T06:35:41;24.80;99.90
25973;DHT22;13765;51.166;4.466;2022-08-21T06:38:09;24.60;99.90
25973;DHT22;13765;51.166;4.466;2022-08-21T06:40:35;24.50;99.90
25973;DHT22;13765;51.166;4.466;2022-08-21T06:43:12;24.20;99.90
25973;DHT22;13765;51.166;4.466;2022-08-21T06:45:43;23.70;99.90
25973;DHT22;13765;51.166;4.466;2022-08-21T06:48:10;23.70;99.90
25973;DHT22;13765;51.166;4.466;2022-08-21T06:50:38;23.80;99.90
25973;DHT22;13765;51.166;4.466;2022-08-21T06:53:10;23.80;99.90
25973;DHT22;13765;51.166;4.466;2022-08-21T06:55:38;23.40;99.90
25973;DHT22;13765;51.166;4.466;2022-08-21T06:58:07;22.70;99.90
25973;DHT22;13765;51.166;4.466;2022-08-21T07:00:39;22.20;99.90
25973;DHT22;13765;51.166;4.466;2022-08-21T07:03:06;22.20;99.90
25973;DHT22;13765;51.166;4.466;2022-08-21T07:05:34;21.90;99.90
25973;DHT22;13765;51.166;4.466;2022-08-21T07:08:01;21.80;99.90
25973;DHT22;13765;51.166;4.466;2022-08-21T07:10:29;21.40;99.90
25973;DHT22;13765;51.166;4.466;2022-08-21T07:12:57;21.50;99.90
25973;DHT22;13765;51.166;4.466;2022-08-21T07:15:29;21.60;99.90
25973;DHT22;13765;51.166;4.466;2022-08-21T07:17:55;21.80;99.90
25973;DHT22;13765;51.166;4.466;2022-08-21T07:20:25;22.10;99.90
25973;DHT22;13765;51.166;4.466;2022-08-21T07:22:50;22.30;99.90
25973;DHT22;13765;51.166;4.466;2022-08-21T07:25:19;22.30;99.90
25973;DHT22;13765;51.166;4.466;2022-08-21T07:27:44;22.20;99.90
25973;DHT22;13765;51.166;4.466;2022-08-21T07:30:10;22.30;99.90
25973;DHT22;13765;51.166;4.466;2022-08-21T07:32:36;22.40;99.90
25973;DHT22;13765;51.166;4.466;2022-08-21T07:35:05;22.60;99.90
25973;DHT22;13765;51.166;4.466;2022-08-21T07:37:31;22.60;99.90
25973;DHT22;13765;51.166;4.466;2022-08-21T07:39:59;22.80;99.90
25973;DHT22;13765;51.166;4.466;2022-08-21T07:42:25;22.80;99.90
25973;DHT22;13765;51.166;4.466;2022-08-21T07:44:54;22.50;99.90
25973;DHT22;13765;51.166;4.466;2022-08-21T07:47:19;22.40;99.90
25973;DHT22;13765;51.166;4.466;2022-08-21T07:49:46;22.40;99.90
25973;DHT22;13765;51.166;4.466;2022-08-21T07:52:15;22.70;99.90
25973;DHT22;13765;51.166;4.466;2022-08-21T07:54:43;22.80;99.90
25973;DHT22;13765;51.166;4.466;2022-08-21T07:57:09;23.10;99.90
25973;DHT22;13765;51.166;4.466;2022-08-21T07:59:35;23.60;99.90
25973;DHT22;13765;51.166;4.466;2022-08-21T08:02:01;24.00;99.90
25973;DHT22;13765;51.166;4.466;2022-08-21T08:04:27;23.90;99.90
25973;DHT22;13765;51.166;4.466;2022-08-21T08:06:55;23.90;99.90
25973;DHT22;13765;51.166;4.466;2022-08-21T08:09:21;24.10;99.90
25973;DHT22;13765;51.166;4.466;2022-08-21T08:11:47;24.20;99.90
25973;DHT22;13765;51.166;4.466;2022-08-21T08:14:15;24.30;99.90
25973;DHT22;13765;51.166;4.466;2022-08-21T08:16:41;24.50;99.90
25973;DHT22;13765;51.166;4.466;2022-08-21T08:19:07;24.40;99.90
25973;DHT22;13765;51.166;4.466;2022-08-21T08:21:32;24.60;99.90
25973;DHT22;13765;51.166;4.466;2022-08-21T08:24:02;24.60;99.90
25973;DHT22;13765;51.166;4.466;2022-08-21T08:26:28;24.60;99.90
25973;DHT22;13765;51.166;4.466;2022-08-21T08:28:54;24.70;99.90
25973;DHT22;13765;51.166;4.466;2022-08-21T08:31:25;24.90;99.90
25973;DHT22;13765;51.166;4.466;2022-08-21T08:33:51;25.20;99.90
25973;DHT22;13765;51.166;4.466;2022-08-21T08:36:19;25.10;99.90
25973;DHT22;13765;51.166;4.466;2022-08-21T08:38:47;24.70;99.90
25973;DHT22;13765;51.166;4.466;2022-08-21T08:41:18;24.60;99.90
25973;DHT22;13765;51.166;4.466;2022-08-21T08:43:53;24.90;99.90
25973;DHT22;13765;51.166;4.466;2022-08-21T08:46:26;25.30;99.90
25973;DHT22;13765;51.166;4.466;2022-08-21T08:48:58;25.70;99.90
25973;DHT22;13765;51.166;4.466;2022-08-21T08:54:25;25.20;99.90
25973;DHT22;13765;51.166;4.466;2022-08-21T08:57:01;25.50;99.90
25973;DHT22;13765;51.166;4.466;2022-08-21T08:59:40;25.00;99.90
25973;DHT22;13765;51.166;4.466;2022-08-21T09:02:12;25.20;99.90
25973;DHT22;13765;51.166;4.466;2022-08-21T09:04:39;25.60;99.90
25973;DHT22;13765;51.166;4.466;2022-08-21T09:26:25;25.80;99.90
25973;DHT22;13765;51.166;4.466;2022-08-21T09:28:58;26.20;99.90
25973;DHT22;13765;51.166;4.466;2022-08-21T09:31:30;26.30;99.90
25973;DHT22;13765;51.166;4.466;2022-08-21T09:34:01;26.60;99.90
25973;DHT22;13765;51.166;4.466;2022-08-21T09:36:47;27.00;99.90
25973;DHT22;13765;51.166;4.466;2022-08-21T09:39:37;27.20;99.90
25973;DHT22;13765;51.166;4.466;2022-08-21T09:42:05;27.30;99.90
25973;DHT22;13765;51.166;4.466;2022-08-21T09:44:34;27.40;99.90
25973;DHT22;13765;51.166;4.466;2022-08-21T09:47:04;27.30;99.90
25973;DHT22;13765;51.166;4.466;2022-08-21T09:49:36;27.10;99.90
25973;DHT22;13765;51.166;4.466;2022-08-21T09:52:17;26.40;99.90
25973;DHT22;13765;51.166;4.466;2022-08-21T09:54:54;26.20;99.90
25973;DHT22;13765;51.166;4.466;2022-08-21T09:57:30;26.30;99.90
25973;DHT22;13765;51.166;4.466;2022-08-21T10:02:40;25.90;99.90
25973;DHT22;13765;51.166;4.466;2022-08-21T10:05:25;26.00;99.90
25973;DHT22;13765;51.166;4.466;2022-08-21T10:07:54;26.00;99.90
25973;DHT22;13765;51.166;4.466;2022-08-21T10:10:28;25.90;99.90
25973;DHT22;13765;51.166;4.466;2022-08-21T10:18:37;25.50;99.90
25973;DHT22;13765;51.166;4.466;2022-08-21T10:21:15;25.50;99.90
25973;DHT22;13765;51.166;4.466;2022-08-21T10:37:34;26.60;99.90
25973;DHT22;13765;51.166;4.466;2022-08-21T10:48:07;26.60;99.90
25973;DHT22;13765;51.166;4.466;2022-08-21T10:50:54;26.20;99.90
25973;DHT22;13765;51.166;4.466;2022-08-21T10:56:24;25.70;99.90
25973;DHT22;13765;51.166;4.466;2022-08-21T11:01:41;26.60;99.90
25973;DHT22;13765;51.166;4.466;2022-08-21T11:04:18;27.00;99.90
25973;DHT22;13765;51.166;4.466;2022-08-21T11:07:02;27.10;99.90
25973;DHT22;13765;51.166;4.466;2022-08-21T11:09:30;26.70;99.90
25973;DHT22;13765;51.166;4.466;2022-08-21T11:12:03;27.30;99.90
25973;DHT22;13765;51.166;4.466;2022-08-21T11:17:37;28.10;99.90
25973;DHT22;13765;51.166;4.466;2022-08-21T11:26:39;28.90;98.60
25973;DHT22;13765;51.166;4.466;2022-08-21T11:29:18;28.60;99.50
25973;DHT22;13765;51.166;4.466;2022-08-21T11:43:41;28.70;97.30
25973;DHT22;13765;51.166;4.466;2022-08-21T11:54:42;28.60;97.20
25973;DHT22;13765;51.166;4.466;2022-08-21T12:00:13;28.70;95.90
25973;DHT22;13765;51.166;4.466;2022-08-21T12:02:55;28.60;96.20
25973;DHT22;13765;51.166;4.466;2022-08-21T12:05:34;28.40;96.50
25973;DHT22;13765;51.166;4.466;2022-08-21T12:08:13;28.30;96.70
25973;DHT22;13765;51.166;4.466;2022-08-21T12:10:47;28.50;97.00
25973;DHT22;13765;51.166;4.466;2022-08-21T12:13:34;28.80;95.80
25973;DHT22;13765;51.166;4.466;2022-08-21T12:16:27;28.80;95.60
25973;DHT22;13765;51.166;4.466;2022-08-21T12:19:04;28.60;95.90
25973;DHT22;13765;51.166;4.466;2022-08-21T12:21:34;28.80;95.50
25973;DHT22;13765;51.166;4.466;2022-08-21T12:26:56;29.40;95.20
25973;DHT22;13765;51.166;4.466;2022-08-21T12:29:28;29.00;95.40
25973;DHT22;13765;51.166;4.466;2022-08-21T12:31:58;29.40;94.40
25973;DHT22;13765;51.166;4.466;2022-08-21T12:34:34;29.20;95.00
25973;DHT22;13765;51.166;4.466;2022-08-21T12:37:09;29.40;94.60
25973;DHT22;13765;51.166;4.466;2022-08-21T12:39:44;29.40;93.90
25973;DHT22;13765;51.166;4.466;2022-08-21T12:42:39;29.10;94.20
25973;DHT22;13765;51.166;4.466;2022-08-21T12:45:18;28.80;94.90
25973;DHT22;13765;51.166;4.466;2022-08-21T12:47:56;28.80;95.40
25973;DHT22;13765;51.166;4.466;2022-08-21T12:53:19;28.90;94.20
25973;DHT22;13765;51.166;4.466;2022-08-21T12:55:49;28.90;93.70
25973;DHT22;13765;51.166;4.466;2022-08-21T12:58:23;28.80;94.10
25973;DHT22;13765;51.166;4.466;2022-08-21T13:00:54;28.30;95.20
25973;DHT22;13765;51.166;4.466;2022-08-21T13:03:22;28.20;95.70
25973;DHT22;13765;51.166;4.466;2022-08-21T13:05:51;28.30;95.10
25973;DHT22;13765;51.166;4.466;2022-08-21T13:08:22;28.20;94.80
25973;DHT22;13765;51.166;4.466;2022-08-21T13:11:04;28.40;94.70
25973;DHT22;13765;51.166;4.466;2022-08-21T13:13:33;28.30;94.40
25973;DHT22;13765;51.166;4.466;2022-08-21T13:16:05;28.40;93.60
25973;DHT22;13765;51.166;4.466;2022-08-21T13:18:53;28.40;93.80
25973;DHT22;13765;51.166;4.466;2022-08-21T13:21:26;28.40;94.90
25973;DHT22;13765;51.166;4.466;2022-08-21T13:23:55;28.50;94.60
25973;DHT22;13765;51.166;4.466;2022-08-21T13:26:32;28.40;93.70
25973;DHT22;13765;51.166;4.466;2022-08-21T13:29:10;28.10;93.20
25973;DHT22;13765;51.166;4.466;2022-08-21T13:31:45;28.20;94.10
25973;DHT22;13765;51.166;4.466;2022-08-21T13:34:14;28.30;93.90
25973;DHT22;13765;51.166;4.466;2022-08-21T13:36:42;28.30;94.70
25973;DHT22;13765;51.166;4.466;2022-08-21T13:39:11;28.50;94.20
25973;DHT22;13765;51.166;4.466;2022-08-21T13:41:42;28.60;94.70
25973;DHT22;13765;51.166;4.466;2022-08-21T13:44:17;28.60;94.50
25973;DHT22;13765;51.166;4.466;2022-08-21T13:46:48;28.50;94.40
25973;DHT22;13765;51.166;4.466;2022-08-21T13:49:18;28.50;94.50
25973;DHT22;13765;51.166;4.466;2022-08-21T13:51:48;28.70;93.90
25973;DHT22;13765;51.166;4.466;2022-08-21T13:54:21;28.90;93.60
25973;DHT22;13765;51.166;4.466;2022-08-21T13:56:51;29.10;92.60
25973;DHT22;13765;51.166;4.466;2022-08-21T13:59:29;29.40;92.50
25973;DHT22;13765;51.166;4.466;2022-08-21T14:07:39;29.10;91.90
25973;DHT22;13765;51.166;4.466;2022-08-21T14:10:15;28.80;92.60
25973;DHT22;13765;51.166;4.466;2022-08-21T14:12:46;28.50;92.60
25973;DHT22;13765;51.166;4.466;2022-08-21T14:15:15;28.50;92.00
25973;DHT22;13765;51.166;4.466;2022-08-21T14:17:44;28.10;92.60
25973;DHT22;13765;51.166;4.466;2022-08-21T14:20:33;27.70;93.30
25973;DHT22;13765;51.166;4.466;2022-08-21T14:23:00;27.60;93.60
25973;DHT22;13765;51.166;4.466;2022-08-21T14:53:19;27.10;95.20
25973;DHT22;13765;51.166;4.466;2022-08-21T14:55:45;27.00;96.20
25973;DHT22;13765;51.166;4.466;2022-08-21T14:58:29;27.00;95.50
25973;DHT22;13765;51.166;4.466;2022-08-21T15:00:59;26.90;95.10
25973;DHT22;13765;51.166;4.466;2022-08-21T15:03:28;27.00;96.20
25973;DHT22;13765;51.166;4.466;2022-08-21T15:05:55;26.60;95.20
25973;DHT22;13765;51.166;4.466;2022-08-21T15:08:20;26.40;95.70
25973;DHT22;13765;51.166;4.466;2022-08-21T15:10:51;26.00;96.50
25973;DHT22;13765;51.166;4.466;2022-08-21T15:13:16;26.30;97.70
25973;DHT22;13765;51.166;4.466;2022-08-21T15:15:47;26.50;96.30
25973;DHT22;13765;51.166;4.466;2022-08-21T15:18:15;26.60;96.10
25973;DHT22;13765;51.166;4.466;2022-08-21T15:20:42;26.60;95.80
25973;DHT22;13765;51.166;4.466;2022-08-21T15:23:08;26.30;95.20
25973;DHT22;13765;51.166;4.466;2022-08-21T15:25:35;26.20;96.10
25973;DHT22;13765;51.166;4.466;2022-08-21T15:28:04;26.00;96.10
25973;DHT22;13765;51.166;4.466;2022-08-21T15:30:30;26.00;96.60
25973;DHT22;13765;51.166;4.466;2022-08-21T15:32:58;26.20;96.50
25973;DHT22;13765;51.166;4.466;2022-08-21T15:35:27;26.30;97.20
25973;DHT22;13765;51.166;4.466;2022-08-21T15:37:55;26.40;97.10
25973;DHT22;13765;51.166;4.466;2022-08-21T15:40:22;26.60;97.00
25973;DHT22;13765;51.166;4.466;2022-08-21T15:42:48;26.80;96.20
25973;DHT22;13765;51.166;4.466;2022-08-21T15:45:18;26.90;95.70
25973;DHT22;13765;51.166;4.466;2022-08-21T15:47:45;26.80;95.70
25973;DHT22;13765;51.166;4.466;2022-08-21T15:50:12;26.90;96.00
25973;DHT22;13765;51.166;4.466;2022-08-21T15:52:42;26.90;95.90
25973;DHT22;13765;51.166;4.466;2022-08-21T15:55:09;26.70;95.30
25973;DHT22;13765;51.166;4.466;2022-08-21T15:57:36;26.30;96.10
25973;DHT22;13765;51.166;4.466;2022-08-21T16:00:12;26.20;96.00
25973;DHT22;13765;51.166;4.466;2022-08-21T16:02:47;26.10;96.10
25973;DHT22;13765;51.166;4.466;2022-08-21T16:05:16;26.30;96.20
25973;DHT22;13765;51.166;4.466;2022-08-21T16:07:43;26.40;97.00
25973;DHT22;13765;51.166;4.466;2022-08-21T16:10:13;26.20;96.40
25973;DHT22;13765;51.166;4.466;2022-08-21T16:12:46;26.20;96.40
25973;DHT22;13765;51.166;4.466;2022-08-21T16:15:14;26.30;96.70
25973;DHT22;13765;51.166;4.466;2022-08-21T16:17:42;26.20;96.30
25973;DHT22;13765;51.166;4.466;2022-08-21T16:20:15;26.20;97.60
25973;DHT22;13765;51.166;4.466;2022-08-21T16:22:42;26.20;98.20
25973;DHT22;13765;51.166;4.466;2022-08-21T16:25:08;26.20;97.30
25973;DHT22;13765;51.166;4.466;2022-08-21T16:27:36;26.20;98.00
25973;DHT22;13765;51.166;4.466;2022-08-21T16:30:04;26.10;97.70
25973;DHT22;13765;51.166;4.466;2022-08-21T16:32:34;25.70;97.50
25973;DHT22;13765;51.166;4.466;2022-08-21T16:35:00;25.50;98.20
25973;DHT22;13765;51.166;4.466;2022-08-21T16:37:29;25.40;99.00
25973;DHT22;13765;51.166;4.466;2022-08-21T16:39:54;25.40;98.50
25973;DHT22;13765;51.166;4.466;2022-08-21T16:42:25;25.40;99.20
25973;DHT22;13765;51.166;4.466;2022-08-21T16:44:55;25.50;99.30
25973;DHT22;13765;51.166;4.466;2022-08-21T16:47:22;25.50;99.90
25973;DHT22;13765;51.166;4.466;2022-08-21T16:49:48;25.60;99.90
25973;DHT22;13765;51.166;4.466;2022-08-21T16:52:19;25.50;99.90
25973;DHT22;13765;51.166;4.466;2022-08-21T16:54:49;25.50;99.90
25973;DHT22;13765;51.166;4.466;2022-08-21T16:57:14;25.40;99.60
25973;DHT22;13765;51.166;4.466;2022-08-21T16:59:43;25.50;99.90
25973;DHT22;13765;51.166;4.466;2022-08-21T17:02:23;25.50;99.90
25973;DHT22;13765;51.166;4.466;2022-08-21T17:04:51;25.50;99.90
25973;DHT22;13765;51.166;4.466;2022-08-21T17:07:17;25.60;99.90
25973;DHT22;13765;51.166;4.466;2022-08-21T17:09:45;25.60;99.90
25973;DHT22;13765;51.166;4.466;2022-08-21T17:12:15;25.70;99.90
25973;DHT22;13765;51.166;4.466;2022-08-21T17:14:41;25.80;99.90
25973;DHT22;13765;51.166;4.466;2022-08-21T17:17:10;25.90;99.90
25973;DHT22;13765;51.166;4.466;2022-08-21T17:19:39;26.00;99.90
25973;DHT22;13765;51.166;4.466;2022-08-21T17:22:06;26.00;99.90
25973;DHT22;13765;51.166;4.466;2022-08-21T17:24:33;26.10;99.90
25973;DHT22;13765;51.166;4.466;2022-08-21T17:27:00;26.00;99.90
25973;DHT22;13765;51.166;4.466;2022-08-21T17:29:35;26.00;99.90
25973;DHT22;13765;51.166;4.466;2022-08-21T17:32:02;26.10;99.90
25973;DHT22;13765;51.166;4.466;2022-08-21T17:34:28;26.10;99.90
25973;DHT22;13765;51.166;4.466;2022-08-21T17:36:54;25.90;99.90
25973;DHT22;13765;51.166;4.466;2022-08-21T17:39:19;25.80;99.90
25973;DHT22;13765;51.166;4.466;2022-08-21T17:41:48;25.60;99.90
25973;DHT22;13765;51.166;4.466;2022-08-21T17:44:15;25.60;99.90
25973;DHT22;13765;51.166;4.466;2022-08-21T17:46:42;25.40;99.90
25973;DHT22;13765;51.166;4.466;2022-08-21T17:49:08;25.30;99.90
25973;DHT22;13765;51.166;4.466;2022-08-21T17:51:38;25.20;99.90
25973;DHT22;13765;51.166;4.466;2022-08-21T17:54:04;25.10;99.90
25973;DHT22;13765;51.166;4.466;2022-08-21T17:56:32;25.00;99.90